Ionic United — V7QJ7 — position and weather

sailwx.info

Track history (hours):
 
Tides and Currents Weather Stations Pressure Air Temp Water Temp Dewpoint Dewpoint Depression Visibility Wind Speed Wind Dir Waves Ship Positions

Ionic United

Last reported at 2017-Oct-24 17:19 UTC. Time now 2017-Nov-20 18:55 UTC.
Position N 01°16' E 104°12'.
Warning: this ship's position is 27 days out of date.

Length 200 m; draft 10.5 m.

Type: Cargo ship. MMSI: 538006703.

Date/timePositionNaut miles runAvg speedWind from/ knotsBaromVisibWave heightAir tempDewpointWater temp
2017-Oct-24 17:19N 01°16' E 104°12'512.6
2017-Oct-24 16:58N 01°15' E 104°07'511.0
2017-Oct-24 16:30N 01°15' E 104°02'4 7.3
2017-Oct-24 16:00N 01°16' E 103°59'1 1.0
2017-Oct-24 14:57N 01°17' E 103°58'0 0.1
2017-Oct-24 12:57N 01°17' E 103°58'0 0.0
2017-Oct-24 06:43N 01°17' E 103°58'0 0.4
2017-Oct-24 06:30N 01°17' E 103°58'2 4.3
2017-Oct-24 06:00N 01°15' E 103°57'2 3.3
2017-Oct-24 05:30N 01°14' E 103°58'2 4.4
2017-Oct-24 05:00N 01°13' E 103°56'3 6.4
2017-Oct-24 04:30N 01°12' E 103°53'3 5.6
2017-Oct-24 04:00N 01°11' E 103°50'3 5.3
2017-Oct-24 03:30N 01°09' E 103°48'3 6.2
2017-Oct-24 03:00N 01°07' E 103°46'4 8.0
2017-Oct-24 02:30N 01°05' E 103°43'5 9.8
2017-Oct-24 01:59N 01°03' E 103°38'511.1
2017-Oct-24 01:30N 01°06' E 103°34'611.2
2017-Oct-24 00:59N 01°09' E 103°29'712.3
2017-Oct-24 00:24N 01°13' E 103°23'712.4
2017-Oct-23 23:51N 01°17' E 103°18'  
Track history (hours):
 
Tides and Currents Weather Stations Pressure Air Temp Water Temp Dewpoint Dewpoint Depression Visibility Wind Speed Wind Dir Waves Ship Positions

Ionic United

Last reported at 2017-Oct-24 17:19 UTC. Time now 2017-Nov-20 18:55 UTC.
Position N 01°16' E 104°12'.
Warning: this ship's position is 27 days out of date.

Length 200 m; draft 10.5 m.

Type: Cargo ship. MMSI: 538006703.

Date/timePositionNaut miles runAvg speedWind from/ knotsBaromVisibWave heightAir tempDewpointWater temp
2017-Oct-24 17:19N 01°16' E 104°12'512.6
2017-Oct-24 16:58N 01°15' E 104°07'511.0
2017-Oct-24 16:30N 01°15' E 104°02'4 7.3
2017-Oct-24 16:00N 01°16' E 103°59'1 1.0
2017-Oct-24 14:57N 01°17' E 103°58'0 0.1
2017-Oct-24 12:57N 01°17' E 103°58'0 0.0
2017-Oct-24 06:43N 01°17' E 103°58'0 0.4
2017-Oct-24 06:30N 01°17' E 103°58'2 4.3
2017-Oct-24 06:00N 01°15' E 103°57'2 3.3
2017-Oct-24 05:30N 01°14' E 103°58'2 4.4
2017-Oct-24 05:00N 01°13' E 103°56'3 6.4
2017-Oct-24 04:30N 01°12' E 103°53'3 5.6
2017-Oct-24 04:00N 01°11' E 103°50'3 5.3
2017-Oct-24 03:30N 01°09' E 103°48'3 6.2
2017-Oct-24 03:00N 01°07' E 103°46'4 8.0
2017-Oct-24 02:30N 01°05' E 103°43'5 9.8
2017-Oct-24 01:59N 01°03' E 103°38'511.1
2017-Oct-24 01:30N 01°06' E 103°34'611.2
2017-Oct-24 00:59N 01°09' E 103°29'712.3
2017-Oct-24 00:24N 01°13' E 103°23'712.4
2017-Oct-23 23:51N 01°17' E 103°18'  

Dump ship's entire track history